createdAt,value
2019-03-11T00:01:32.770Z,2.10
2019-03-11T00:03:59.920Z,2.63
2019-03-11T00:06:26.863Z,2.60
2019-03-11T00:08:53.774Z,2.73
2019-03-11T00:11:20.727Z,3.70
2019-03-11T00:13:47.644Z,3.83
2019-03-11T00:16:14.565Z,3.10
2019-03-11T00:18:41.534Z,3.20
2019-03-11T00:21:08.431Z,3.60
2019-03-11T00:23:35.425Z,3.60
2019-03-11T00:26:02.391Z,3.40
2019-03-11T00:28:29.907Z,3.53
2019-03-11T00:30:56.797Z,3.70
2019-03-11T00:33:23.748Z,3.23
2019-03-11T00:35:50.753Z,3.67
2019-03-11T00:38:17.687Z,4.80
2019-03-11T00:40:44.622Z,2.83
2019-03-11T00:43:11.663Z,4.10
2019-03-11T00:45:38.580Z,4.07
2019-03-11T00:48:05.526Z,3.70
2019-03-11T00:50:32.435Z,4.10
2019-03-11T00:52:59.376Z,4.43
2019-03-11T00:55:26.313Z,4.47
2019-03-11T00:57:53.312Z,3.80
2019-03-11T01:00:29.497Z,4.20
2019-03-11T01:02:56.447Z,3.60
2019-03-11T01:05:23.371Z,3.77
2019-03-11T01:07:50.307Z,3.50
2019-03-11T01:10:17.215Z,3.00
2019-03-11T01:12:44.188Z,3.50
2019-03-11T01:15:11.121Z,3.50
2019-03-11T01:17:38.089Z,3.63
2019-03-11T01:20:05.616Z,3.87
2019-03-11T01:22:32.551Z,3.60
2019-03-11T01:24:59.503Z,2.90
2019-03-11T01:27:26.419Z,2.70
2019-03-11T01:29:53.366Z,3.40
2019-03-11T01:32:20.275Z,3.10
2019-03-11T01:34:47.222Z,2.23
2019-03-11T01:37:14.132Z,2.67
2019-03-11T01:39:41.073Z,2.50
2019-03-11T01:42:08.370Z,3.13
2019-03-11T01:44:35.313Z,1.40
2019-03-11T01:47:02.341Z,1.70
2019-03-11T01:49:29.264Z,1.30
2019-03-11T01:51:56.241Z,1.20
2019-03-11T01:54:23.190Z,0.60
2019-03-11T01:56:50.106Z,1.10
2019-03-11T01:59:17.053Z,0.90
2019-03-11T02:01:43.969Z,0.60
2019-03-11T02:04:10.899Z,1.60
2019-03-11T02:06:37.836Z,1.50
2019-03-11T02:09:05.331Z,1.10
2019-03-11T02:11:32.270Z,0.90
2019-03-11T02:14:00.085Z,1.30
2019-03-11T02:16:26.970Z,1.50
2019-03-11T02:18:54.039Z,1.47
2019-03-11T02:21:20.935Z,2.33
2019-03-11T02:23:47.877Z,1.43
2019-03-11T02:26:14.824Z,1.93
2019-03-11T02:28:41.711Z,2.10
2019-03-11T02:31:08.646Z,1.57
2019-03-11T02:33:35.564Z,2.57
2019-03-11T02:36:02.512Z,1.80
2019-03-11T02:38:29.416Z,2.40
2019-03-11T02:40:56.388Z,2.27
2019-03-11T02:43:23.328Z,1.97
2019-03-11T02:45:50.259Z,2.50
2019-03-11T02:48:17.257Z,2.23
2019-03-11T02:50:44.232Z,1.00
2019-03-11T02:53:11.122Z,1.27
2019-03-11T02:55:38.100Z,1.00
2019-03-11T02:58:05.013Z,0.87
2019-03-11T03:00:31.951Z,1.33
2019-03-11T03:03:24.100Z,0.80
2019-03-11T03:05:57.338Z,0.93
2019-03-11T03:08:24.235Z,1.23
2019-03-11T03:10:51.172Z,1.60
2019-03-11T03:13:18.130Z,1.30
2019-03-11T03:15:45.120Z,2.13
2019-03-11T03:18:12.029Z,1.87
2019-03-11T03:20:38.988Z,2.23
2019-03-11T03:23:05.872Z,3.70
2019-03-11T03:25:34.939Z,3.37
2019-03-11T03:28:01.702Z,3.43
2019-03-11T03:30:29.004Z,3.77
2019-03-11T03:32:55.967Z,4.37
2019-03-11T03:35:22.931Z,3.43
2019-03-11T03:37:49.836Z,3.80
2019-03-11T03:40:17.213Z,4.00
2019-03-11T03:42:44.504Z,4.20
2019-03-11T03:45:28.610Z,3.43
2019-03-11T03:47:55.598Z,3.80
2019-03-11T03:50:22.586Z,4.03
2019-03-11T03:52:49.536Z,3.57
2019-03-11T03:55:16.469Z,3.80
2019-03-11T03:57:43.520Z,3.50
2019-03-11T04:00:10.560Z,3.17
2019-03-11T04:02:37.497Z,3.00
2019-03-11T04:05:04.543Z,3.60
2019-03-11T04:07:31.460Z,2.90
2019-03-11T04:09:58.365Z,2.90
2019-03-11T04:12:25.306Z,3.00
2019-03-11T04:14:52.432Z,3.40
2019-03-11T04:17:19.887Z,3.13
2019-03-11T04:19:46.806Z,3.10
2019-03-11T04:22:13.762Z,3.33
2019-03-11T04:24:40.718Z,3.50
2019-03-11T04:27:08.668Z,2.73
2019-03-11T04:29:35.572Z,2.77
2019-03-11T04:32:02.556Z,3.33
2019-03-11T04:34:30.395Z,2.40
2019-03-11T04:36:57.343Z,3.30
2019-03-11T04:39:24.255Z,3.37
2019-03-11T04:41:51.233Z,2.60
2019-03-11T04:44:18.148Z,4.00
2019-03-11T04:46:45.102Z,2.80
2019-03-11T04:49:12.020Z,2.40
2019-03-11T04:51:38.964Z,3.17
2019-03-11T04:54:05.876Z,3.00
2019-03-11T04:56:32.820Z,2.00
2019-03-11T04:59:10.472Z,2.80
2019-03-11T05:01:37.427Z,2.57
2019-03-11T05:04:04.327Z,1.93
2019-03-11T05:06:31.313Z,1.90
2019-03-11T05:08:58.209Z,2.03
2019-03-11T05:11:25.157Z,3.50
2019-03-11T05:13:52.162Z,2.90
2019-03-11T05:16:19.124Z,2.50
2019-03-11T05:18:46.070Z,1.93
2019-03-11T05:21:12.979Z,2.80
2019-03-11T05:23:39.926Z,2.17
2019-03-11T05:26:06.833Z,3.13
2019-03-11T05:28:33.784Z,2.60
2019-03-11T05:31:00.692Z,2.40
2019-03-11T05:33:27.649Z,3.10
2019-03-11T05:35:54.590Z,3.50
2019-03-11T05:38:21.529Z,3.60
2019-03-11T05:40:48.460Z,4.13
2019-03-11T05:43:15.397Z,2.70
2019-03-11T05:45:42.310Z,2.80
2019-03-11T05:48:09.248Z,3.40
2019-03-11T05:50:36.265Z,3.30
2019-03-11T05:53:03.203Z,3.20
2019-03-11T05:55:30.122Z,3.60
2019-03-11T05:57:57.074Z,3.50
2019-03-11T06:00:26.900Z,3.80
2019-03-11T06:02:53.879Z,3.97
2019-03-11T06:05:20.798Z,3.83
2019-03-11T06:07:47.773Z,3.00
2019-03-11T06:10:15.015Z,2.80
2019-03-11T06:12:41.919Z,3.23
2019-03-11T06:15:09.211Z,4.00
2019-03-11T06:17:36.189Z,2.50
2019-03-11T06:20:14.684Z,2.70
2019-03-11T06:22:41.623Z,2.60
2019-03-11T06:25:08.552Z,3.80
2019-03-11T06:27:52.544Z,2.80
2019-03-11T06:30:20.003Z,2.97
2019-03-11T06:32:46.910Z,3.10
2019-03-11T06:35:13.855Z,2.03
2019-03-11T06:37:40.765Z,3.20
2019-03-11T06:40:07.986Z,3.20
2019-03-11T06:42:35.132Z,3.00
2019-03-11T06:45:02.085Z,2.73
2019-03-11T06:47:28.987Z,3.70
2019-03-11T06:49:55.947Z,4.00
2019-03-11T06:52:22.855Z,4.30
2019-03-11T06:54:49.808Z,4.37
2019-03-11T06:57:16.728Z,4.20
2019-03-11T06:59:43.682Z,4.00
2019-03-11T07:02:10.588Z,3.90
2019-03-11T07:04:37.547Z,3.70
2019-03-11T07:07:04.468Z,4.10
2019-03-11T07:09:31.440Z,4.03
2019-03-11T07:11:58.342Z,2.73
2019-03-11T07:14:25.276Z,3.27
2019-03-11T07:16:52.202Z,3.20
2019-03-11T07:19:19.165Z,3.80
2019-03-11T07:21:46.090Z,2.87
2019-03-11T07:24:13.027Z,3.13
2019-03-11T07:26:39.944Z,2.03
2019-03-11T07:29:09.462Z,2.70
2019-03-11T07:31:36.547Z,2.27
2019-03-11T07:34:03.461Z,1.90
2019-03-11T07:36:30.404Z,2.33
2019-03-11T07:38:57.376Z,2.70
2019-03-11T07:41:24.337Z,2.17
2019-03-11T07:43:51.243Z,2.40
2019-03-11T07:46:18.169Z,2.37
2019-03-11T07:48:45.110Z,2.20
2019-03-11T07:51:12.110Z,2.43
2019-03-11T07:53:38.983Z,2.43
2019-03-11T07:56:05.927Z,3.00
2019-03-11T07:58:32.836Z,1.90
2019-03-11T08:00:59.780Z,2.50
2019-03-11T08:03:28.016Z,2.07
2019-03-11T08:05:55.079Z,3.00
2019-03-11T08:08:21.983Z,3.43
2019-03-11T08:10:48.945Z,2.77
2019-03-11T08:13:15.855Z,3.07
2019-03-11T08:15:42.776Z,2.97
2019-03-11T08:18:10.819Z,3.20
2019-03-11T08:20:38.099Z,3.60
2019-03-11T08:23:05.241Z,3.70
2019-03-11T08:25:33.287Z,3.50
2019-03-11T08:28:01.898Z,3.50
2019-03-11T08:30:28.936Z,3.10
2019-03-11T08:32:55.873Z,3.40
2019-03-11T08:35:22.831Z,4.73
2019-03-11T08:37:50.212Z,3.20
2019-03-11T08:40:17.203Z,3.00
2019-03-11T08:42:44.131Z,3.20
2019-03-11T08:45:11.968Z,3.07
2019-03-11T08:47:38.879Z,3.80
2019-03-11T08:50:07.224Z,3.50
2019-03-11T08:52:36.100Z,3.10
2019-03-11T08:55:05.279Z,3.37
2019-03-11T08:57:32.309Z,2.87
2019-03-11T08:59:59.254Z,2.67
2019-03-11T09:02:26.195Z,2.80
2019-03-11T09:04:53.107Z,2.07
2019-03-11T09:07:22.456Z,2.20
2019-03-11T09:09:50.654Z,2.37
2019-03-11T09:12:19.345Z,1.83
2019-03-11T09:14:47.950Z,2.53
2019-03-11T09:17:15.440Z,3.43
2019-03-11T09:19:43.307Z,2.80
2019-03-11T09:22:11.002Z,2.63
2019-03-11T09:24:37.925Z,2.17
2019-03-11T09:27:04.870Z,3.07
2019-03-11T09:29:31.838Z,3.63
2019-03-11T09:31:58.862Z,3.37
2019-03-11T09:34:26.094Z,3.20
2019-03-11T09:36:53.436Z,3.27
2019-03-11T09:39:20.687Z,3.33
2019-03-11T09:41:49.265Z,3.27
2019-03-11T09:44:16.354Z,2.80
2019-03-11T09:46:43.586Z,2.93
2019-03-11T09:49:10.516Z,3.83
2019-03-11T09:51:37.452Z,3.60
2019-03-11T09:54:04.367Z,3.23
2019-03-11T09:56:31.324Z,5.33
2019-03-11T09:58:58.227Z,3.80
2019-03-11T10:01:25.175Z,4.20
2019-03-11T10:03:52.087Z,4.70
2019-03-11T10:06:19.047Z,4.50
2019-03-11T10:08:45.980Z,4.73
2019-03-11T10:11:12.876Z,5.37
2019-03-11T10:13:39.839Z,4.17
2019-03-11T10:16:06.890Z,4.30
2019-03-11T10:18:33.866Z,3.33
2019-03-11T10:21:00.792Z,3.40
2019-03-11T10:23:31.991Z,3.17
2019-03-11T10:25:56.650Z,3.00
2019-03-11T10:28:23.588Z,3.27
2019-03-11T10:30:50.923Z,2.30
2019-03-11T10:33:17.907Z,3.03
2019-03-11T10:35:44.844Z,3.47
2019-03-11T10:38:11.787Z,3.00
2019-03-11T10:40:38.767Z,4.00
2019-03-11T10:43:05.881Z,2.83
2019-03-11T10:45:32.816Z,6.20
2019-03-11T10:47:59.765Z,4.03
2019-03-11T10:50:26.672Z,3.37
2019-03-11T10:52:53.728Z,3.30
2019-03-11T10:55:20.696Z,3.73
2019-03-11T10:57:47.777Z,4.60
2019-03-11T11:00:17.253Z,4.20
2019-03-11T11:02:44.203Z,3.80
2019-03-11T11:05:11.591Z,3.63
2019-03-11T11:07:38.623Z,3.23
2019-03-11T11:10:06.585Z,3.90
2019-03-11T11:12:33.558Z,3.27
2019-03-11T11:15:00.536Z,3.00
2019-03-11T11:17:27.547Z,3.13
2019-03-11T11:20:02.800Z,3.27
2019-03-11T11:22:23.925Z,3.00
2019-03-11T11:24:50.873Z,2.37
2019-03-11T11:27:17.837Z,2.37
2019-03-11T11:29:44.799Z,2.70
2019-03-11T11:32:11.724Z,1.93
2019-03-11T11:34:39.269Z,2.40
2019-03-11T11:37:06.186Z,2.77
2019-03-11T11:39:33.210Z,4.43
2019-03-11T11:42:00.187Z,3.47
2019-03-11T11:44:27.129Z,2.97
2019-03-11T11:46:54.088Z,3.23
2019-03-11T11:49:21.044Z,3.70
2019-03-11T11:51:47.997Z,2.90
2019-03-11T11:54:14.934Z,2.43
2019-03-11T11:56:41.880Z,3.17
2019-03-11T11:59:08.826Z,3.13
2019-03-11T12:01:35.761Z,2.97
2019-03-11T12:04:02.740Z,3.07
2019-03-11T12:06:29.686Z,2.53
2019-03-11T12:08:56.813Z,2.10
2019-03-11T12:11:23.822Z,2.50
2019-03-11T12:13:50.868Z,2.30
2019-03-11T12:16:17.889Z,2.60
2019-03-11T12:18:44.851Z,2.93
2019-03-11T12:21:11.886Z,2.80
2019-03-11T12:23:46.249Z,2.23
2019-03-11T12:26:07.703Z,2.23
2019-03-11T12:28:34.681Z,2.17
2019-03-11T12:31:04.691Z,3.07
2019-03-11T12:33:31.737Z,2.27
2019-03-11T12:35:58.729Z,2.43
2019-03-11T12:38:25.805Z,2.53
2019-03-11T12:40:52.805Z,3.67
2019-03-11T12:43:19.724Z,2.17
2019-03-11T12:45:46.671Z,2.27
2019-03-11T12:48:13.632Z,1.93
2019-03-11T12:50:40.591Z,1.97
2019-03-11T12:53:08.193Z,2.30
2019-03-11T12:55:35.144Z,1.60
2019-03-11T12:58:02.345Z,1.57
2019-03-11T13:00:29.336Z,1.40
2019-03-11T13:02:56.266Z,1.50
2019-03-11T13:05:23.225Z,1.00
2019-03-11T13:07:50.150Z,1.47
2019-03-11T13:10:18.105Z,1.00
2019-03-11T13:12:45.139Z,1.60
2019-03-11T13:15:36.872Z,1.20
2019-03-11T13:18:43.347Z,1.63
2019-03-11T13:21:20.296Z,1.70
2019-03-11T13:23:49.463Z,1.40
2019-03-11T13:26:19.337Z,1.77
2019-03-11T13:28:49.737Z,1.20
2019-03-11T13:31:17.062Z,1.37
2019-03-11T13:33:45.080Z,2.03
2019-03-11T13:36:12.487Z,1.00
2019-03-11T13:38:39.464Z,1.17
2019-03-11T13:41:06.476Z,1.13
2019-03-11T13:43:33.390Z,1.10
2019-03-11T13:46:00.333Z,1.27
2019-03-11T13:48:27.238Z,2.10
2019-03-11T13:50:54.196Z,1.33
2019-03-11T13:53:21.114Z,1.50
2019-03-11T13:55:48.147Z,1.10
2019-03-11T13:58:15.054Z,0.97
2019-03-11T14:00:42.036Z,1.40
2019-03-11T14:03:08.941Z,1.33
2019-03-11T14:05:36.230Z,1.37
2019-03-11T14:08:03.628Z,1.10
2019-03-11T14:10:30.563Z,1.90
2019-03-11T14:12:57.527Z,1.30
2019-03-11T14:15:24.593Z,0.70
2019-03-11T14:17:51.560Z,1.10
2019-03-11T14:20:18.623Z,1.30
2019-03-11T14:22:45.571Z,1.77
2019-03-11T14:25:13.626Z,1.20
2019-03-11T14:27:40.591Z,1.40
2019-03-11T14:30:08.957Z,1.33
2019-03-11T14:32:35.916Z,2.10
2019-03-11T14:35:03.059Z,1.60
2019-03-11T14:37:30.013Z,1.10
2019-03-11T14:39:56.952Z,1.07
2019-03-11T14:42:23.937Z,1.27
2019-03-11T14:44:50.936Z,1.37
2019-03-11T14:47:17.901Z,1.73
2019-03-11T14:49:44.815Z,1.00
2019-03-11T14:52:11.822Z,1.23
2019-03-11T14:54:38.746Z,1.97
2019-03-11T14:57:05.781Z,1.17
2019-03-11T14:59:32.739Z,0.83
2019-03-11T15:01:59.684Z,1.37
2019-03-11T15:04:26.621Z,1.40
2019-03-11T15:06:53.597Z,1.27
2019-03-11T15:09:20.518Z,1.47
2019-03-11T15:11:47.533Z,1.30
2019-03-11T15:14:14.467Z,1.17
2019-03-11T15:16:41.389Z,0.90
2019-03-11T15:19:08.338Z,1.43
2019-03-11T15:21:35.256Z,1.77
2019-03-11T15:24:02.450Z,1.07
2019-03-11T15:26:29.372Z,1.80
2019-03-11T15:28:56.414Z,2.33
2019-03-11T15:31:23.430Z,1.53
2019-03-11T15:33:50.385Z,1.53
2019-03-11T15:36:17.314Z,1.20
2019-03-11T15:38:44.297Z,1.57
2019-03-11T15:41:11.266Z,1.60
2019-03-11T15:43:38.191Z,1.37
2019-03-11T15:46:05.104Z,1.40
2019-03-11T15:48:32.056Z,1.33
2019-03-11T15:50:58.992Z,0.70
2019-03-11T15:53:25.969Z,1.00
2019-03-11T15:55:52.883Z,0.80
2019-03-11T15:58:19.834Z,1.07
2019-03-11T16:00:46.767Z,1.63
2019-03-11T16:03:13.753Z,1.30
2019-03-11T16:05:40.687Z,1.60
2019-03-11T16:08:07.883Z,1.40
2019-03-11T16:10:34.818Z,1.10
2019-03-11T16:13:01.780Z,0.90
2019-03-11T16:15:28.789Z,1.80
2019-03-11T16:17:55.745Z,2.63
2019-03-11T16:20:22.754Z,2.00
2019-03-11T16:22:49.689Z,1.20
2019-03-11T16:25:16.634Z,1.27
2019-03-11T16:27:43.673Z,1.90
2019-03-11T16:30:13.483Z,1.17
2019-03-11T16:32:57.220Z,1.43
2019-03-11T16:35:09.276Z,1.57
2019-03-11T16:37:36.203Z,1.40
2019-03-11T16:40:03.738Z,4.57
2019-03-11T16:42:30.681Z,1.90
2019-03-11T16:44:57.670Z,1.07
2019-03-11T16:47:24.589Z,0.87
2019-03-11T16:49:52.183Z,1.27
2019-03-11T16:52:19.448Z,1.83
2019-03-11T16:54:46.470Z,0.90
2019-03-11T16:57:13.927Z,1.00
2019-03-11T16:59:40.909Z,0.90
2019-03-11T17:02:07.965Z,0.80
2019-03-11T17:04:35.078Z,0.70
2019-03-11T17:07:02.130Z,1.23
2019-03-11T17:09:29.074Z,1.57
2019-03-11T17:11:56.006Z,1.30
2019-03-11T17:14:23.140Z,0.93
2019-03-11T17:16:50.947Z,1.13
2019-03-11T17:19:18.009Z,0.97
2019-03-11T17:21:45.129Z,1.23
2019-03-11T17:24:12.071Z,1.00
2019-03-11T17:26:39.030Z,1.33
2019-03-11T17:29:05.938Z,0.90
2019-03-11T17:31:32.896Z,0.60
2019-03-11T17:33:59.851Z,0.80
2019-03-11T17:36:26.835Z,0.77
2019-03-11T17:38:54.433Z,1.20
2019-03-11T17:41:21.407Z,1.03
2019-03-11T17:43:48.381Z,0.77
2019-03-11T17:46:15.439Z,1.23
2019-03-11T17:48:42.353Z,1.33
2019-03-11T17:51:12.411Z,0.90
2019-03-11T17:53:39.411Z,0.97
2019-03-11T17:56:06.364Z,1.33
2019-03-11T17:58:33.266Z,0.60
2019-03-11T18:01:00.232Z,1.17
2019-03-11T18:03:27.264Z,1.37
2019-03-11T18:05:56.942Z,1.87
2019-03-11T18:08:23.036Z,1.33
2019-03-11T18:10:50.016Z,1.80
2019-03-11T18:13:18.029Z,1.10
2019-03-11T18:15:45.340Z,1.67
2019-03-11T18:18:12.274Z,1.20
2019-03-11T18:20:39.234Z,1.40
2019-03-11T18:23:06.196Z,2.03
2019-03-11T18:25:33.760Z,1.20
2019-03-11T18:28:02.288Z,1.00
2019-03-11T18:30:30.088Z,1.50
2019-03-11T18:32:57.011Z,0.97
2019-03-11T18:35:24.004Z,1.60
2019-03-11T18:37:50.894Z,1.30
2019-03-11T18:40:18.266Z,2.30
2019-03-11T18:42:45.550Z,1.40
2019-03-11T18:45:12.928Z,2.73
2019-03-11T18:47:39.996Z,1.90
2019-03-11T18:50:08.867Z,2.10
2019-03-11T18:52:35.951Z,1.87
2019-03-11T18:55:02.996Z,3.10
2019-03-11T18:57:30.019Z,2.43
2019-03-11T18:59:56.970Z,2.13
2019-03-11T19:02:23.969Z,1.87
2019-03-11T19:04:50.922Z,2.43
2019-03-11T19:07:18.150Z,1.90
2019-03-11T19:09:45.045Z,2.10
2019-03-11T19:12:12.107Z,2.10
2019-03-11T19:14:39.402Z,2.37
2019-03-11T19:17:06.550Z,1.63
2019-03-11T19:19:45.639Z,2.30
2019-03-11T19:22:05.467Z,1.90
2019-03-11T19:24:32.378Z,1.20
2019-03-11T19:26:59.335Z,1.30
2019-03-11T19:29:26.383Z,1.33
2019-03-11T19:31:54.174Z,1.43
2019-03-11T19:34:21.070Z,1.33
2019-03-11T19:36:48.027Z,1.40
2019-03-11T19:39:16.778Z,1.70
2019-03-11T19:41:43.839Z,1.53
2019-03-11T19:44:10.778Z,2.03
2019-03-11T19:46:37.888Z,1.50
2019-03-11T19:49:04.794Z,1.50
2019-03-11T19:51:31.836Z,1.83
2019-03-11T19:53:58.871Z,1.90
2019-03-11T19:56:25.778Z,2.13
2019-03-11T19:58:52.832Z,1.90
2019-03-11T20:01:19.777Z,2.10
2019-03-11T20:03:46.790Z,2.57
2019-03-11T20:06:13.819Z,1.93
2019-03-11T20:08:40.857Z,1.90
2019-03-11T20:11:07.859Z,1.90
2019-03-11T20:13:36.614Z,2.40
2019-03-11T20:16:03.911Z,1.83
2019-03-11T20:18:30.862Z,1.83
2019-03-11T20:20:57.901Z,2.47
2019-03-11T20:23:25.255Z,2.10
2019-03-11T20:25:52.280Z,1.63
2019-03-11T20:28:19.270Z,1.90
2019-03-11T20:30:46.200Z,1.60
2019-03-11T20:33:13.166Z,2.00
2019-03-11T20:35:40.401Z,2.33
2019-03-11T20:38:07.342Z,1.80
2019-03-11T20:40:34.459Z,1.87
2019-03-11T20:43:01.602Z,2.07
2019-03-11T20:45:28.760Z,1.83
2019-03-11T20:47:56.031Z,2.00
2019-03-11T20:50:23.010Z,1.70
2019-03-11T20:52:50.373Z,1.67
2019-03-11T20:55:17.376Z,1.80
2019-03-11T20:57:44.630Z,1.77
2019-03-11T21:00:16.545Z,1.80
2019-03-11T21:02:43.594Z,2.03
2019-03-11T21:05:10.583Z,2.20
2019-03-11T21:07:38.132Z,1.57
2019-03-11T21:10:06.844Z,2.07
2019-03-11T21:12:33.743Z,2.43
2019-03-11T21:15:00.763Z,3.73
2019-03-11T21:17:29.537Z,2.03
2019-03-11T21:20:17.856Z,2.10
2019-03-11T21:22:45.912Z,2.00
2019-03-11T21:25:14.579Z,2.50
2019-03-11T21:27:41.584Z,2.60
2019-03-11T21:30:11.989Z,2.67
2019-03-11T21:32:39.185Z,2.80
2019-03-11T21:35:06.847Z,2.00
2019-03-11T21:37:34.001Z,2.30
2019-03-11T21:40:01.494Z,2.17
2019-03-11T21:42:29.070Z,2.10
2019-03-11T21:44:56.265Z,2.30
2019-03-11T21:47:23.352Z,2.43
2019-03-11T21:49:50.417Z,1.97
2019-03-11T21:52:17.588Z,2.13
2019-03-11T21:54:47.458Z,3.00
2019-03-11T21:57:13.772Z,2.73
2019-03-11T21:59:41.368Z,2.90
2019-03-11T22:02:08.687Z,2.17
2019-03-11T22:04:35.729Z,3.57
2019-03-11T22:07:02.649Z,3.60
2019-03-11T22:09:29.624Z,2.80
2019-03-11T22:11:56.551Z,3.20
2019-03-11T22:14:23.522Z,2.73
2019-03-11T22:16:50.481Z,2.70
2019-03-11T22:19:17.424Z,3.57
2019-03-11T22:21:44.515Z,2.70
2019-03-11T22:24:11.551Z,2.50
2019-03-11T22:26:38.492Z,3.10
2019-03-11T22:29:05.467Z,3.20
2019-03-11T22:31:32.440Z,3.30
2019-03-11T22:33:59.382Z,3.90
2019-03-11T22:36:26.313Z,2.63
2019-03-11T22:38:53.278Z,2.63
2019-03-11T22:41:20.288Z,3.97
2019-03-11T22:43:47.215Z,3.33
2019-03-11T22:46:14.163Z,2.30
2019-03-11T22:48:41.112Z,3.20
2019-03-11T22:51:08.049Z,2.97
2019-03-11T22:53:34.958Z,2.50
2019-03-11T22:56:01.965Z,1.90
2019-03-11T22:58:28.879Z,2.53
2019-03-11T23:00:59.164Z,2.50
2019-03-11T23:03:26.221Z,2.20
2019-03-11T23:05:58.117Z,2.60
2019-03-11T23:08:22.001Z,2.73
2019-03-11T23:10:49.068Z,2.60
2019-03-11T23:13:16.067Z,2.70
2019-03-11T23:15:42.991Z,3.10
2019-03-11T23:18:09.991Z,3.17
2019-03-11T23:20:36.935Z,3.33
2019-03-11T23:23:03.949Z,2.00
2019-03-11T23:25:30.945Z,3.00
2019-03-11T23:27:57.874Z,2.43
2019-03-11T23:30:24.821Z,3.83
2019-03-11T23:32:51.753Z,3.27
2019-03-11T23:35:18.701Z,2.50
2019-03-11T23:37:45.611Z,2.20
2019-03-11T23:40:12.570Z,2.60
2019-03-11T23:42:39.645Z,2.27
2019-03-11T23:45:06.690Z,2.93
2019-03-11T23:47:33.701Z,2.47
2019-03-11T23:50:00.666Z,2.83
2019-03-11T23:52:27.726Z,2.50
2019-03-11T23:54:54.642Z,2.17
2019-03-11T23:57:21.618Z,3.03
2019-03-11T23:59:48.520Z,2.87
